sensor_id;sensor_type;location;lat;lon;timestamp;pressure;altitude;pressure_sealevel;temperature;humidity
16451;BME280;12243;42.708;23.310;2023-03-23T00:01:01;95001.25;;;6.78;100.00
16451;BME280;12243;42.708;23.310;2023-03-23T00:03:28;95011.78;;;6.75;100.00
16451;BME280;12243;42.708;23.310;2023-03-23T00:05:57;95008.47;;;6.85;100.00
16451;BME280;12243;42.708;23.310;2023-03-23T00:08:30;94999.16;;;6.83;100.00
16451;BME280;12243;42.708;23.310;2023-03-23T00:10:57;95004.78;;;6.77;100.00
16451;BME280;12243;42.708;23.310;2023-03-23T00:13:28;95003.09;;;6.76;100.00
16451;BME280;12243;42.708;23.310;2023-03-23T00:15:55;95000.28;;;6.79;100.00
16451;BME280;12243;42.708;23.310;2023-03-23T00:18:26;95002.88;;;6.79;100.00
16451;BME280;12243;42.708;23.310;2023-03-23T00:20:54;95001.44;;;6.75;100.00
16451;BME280;12243;42.708;23.310;2023-03-23T00:23:23;95000.84;;;6.71;100.00
16451;BME280;12243;42.708;23.310;2023-03-23T00:25:53;95003.09;;;6.76;100.00
16451;BME280;12243;42.708;23.310;2023-03-23T00:28:23;95011.78;;;6.75;100.00
16451;BME280;12243;42.708;23.310;2023-03-23T00:30:57;95012.75;;;6.74;100.00
16451;BME280;12243;42.708;23.310;2023-03-23T00:33:24;95022.34;;;6.72;100.00
16451;BME280;12243;42.708;23.310;2023-03-23T00:35:52;95018.41;;;6.91;100.00
16451;BME280;12243;42.708;23.310;2023-03-23T00:38:20;95020.06;;;6.92;100.00
16451;BME280;12243;42.708;23.310;2023-03-23T00:40:47;95021.53;;;6.84;100.00
16451;BME280;12243;42.708;23.310;2023-03-23T00:43:19;95019.78;;;6.72;100.00
16451;BME280;12243;42.708;23.310;2023-03-23T00:45:50;95020.19;;;6.65;100.00
16451;BME280;12243;42.708;23.310;2023-03-23T00:48:20;95022.56;;;6.68;100.00
16451;BME280;12243;42.708;23.310;2023-03-23T00:50:47;95022.47;;;6.57;100.00
16451;BME280;12243;42.708;23.310;2023-03-23T00:53:15;95022.88;;;6.51;100.00
16451;BME280;12243;42.708;23.310;2023-03-23T00:55:42;95028.38;;;6.59;100.00
16451;BME280;12243;42.708;23.310;2023-03-23T00:58:10;95031.06;;;6.58;100.00
16451;BME280;12243;42.708;23.310;2023-03-23T01:00:38;95028.59;;;6.56;100.00
16451;BME280;12243;42.708;23.310;2023-03-23T01:03:06;95033.75;;;6.56;100.00
16451;BME280;12243;42.708;23.310;2023-03-23T01:05:36;95032.59;;;6.48;100.00
16451;BME280;12243;42.708;23.310;2023-03-23T01:08:04;95029.19;;;6.47;100.00
16451;BME280;12243;42.708;23.310;2023-03-23T01:10:31;95027.94;;;6.40;100.00
16451;BME280;12243;42.708;23.310;2023-03-23T01:12:59;95029.78;;;6.38;100.00
16451;BME280;12243;42.708;23.310;2023-03-23T01:15:27;95030.13;;;6.33;100.00
16451;BME280;12243;42.708;23.310;2023-03-23T01:17:54;95029.78;;;6.38;100.00
16451;BME280;12243;42.708;23.310;2023-03-23T01:20:23;95026.31;;;6.39;100.00
16451;BME280;12243;42.708;23.310;2023-03-23T01:22:51;95019.03;;;6.44;100.00
16451;BME280;12243;42.708;23.310;2023-03-23T01:25:26;95024.41;;;6.41;100.00
16451;BME280;12243;42.708;23.310;2023-03-23T01:27:53;95020.19;;;6.40;100.00
16451;BME280;12243;42.708;23.310;2023-03-23T01:30:20;95017.41;;;6.43;100.00
16451;BME280;12243;42.708;23.310;2023-03-23T01:32:47;95014.41;;;6.49;100.00
16451;BME280;12243;42.708;23.310;2023-03-23T01:35:14;95017.19;;;6.46;100.00
16451;BME280;12243;42.708;23.310;2023-03-23T01:37:41;95011.38;;;6.55;100.00
16451;BME280;12243;42.708;23.310;2023-03-23T01:40:11;95008.59;;;6.58;100.00
16451;BME280;12243;42.708;23.310;2023-03-23T01:42:38;95011.63;;;6.52;100.00
16451;BME280;12243;42.708;23.310;2023-03-23T01:45:25;95002.50;;;6.59;100.00
16451;BME280;12243;42.708;23.310;2023-03-23T01:47:59;95005.59;;;6.64;100.00
16451;BME280;12243;42.708;23.310;2023-03-23T01:50:33;95006.75;;;6.60;100.00
16451;BME280;12243;42.708;23.310;2023-03-23T01:53:04;94996.47;;;6.59;100.00
16451;BME280;12243;42.708;23.310;2023-03-23T01:55:37;95003.00;;;6.52;100.00
16451;BME280;12243;42.708;23.310;2023-03-23T01:58:08;94999.78;;;6.48;100.00
16451;BME280;12243;42.708;23.310;2023-03-23T02:00:38;95001.03;;;6.55;100.00
16451;BME280;12243;42.708;23.310;2023-03-23T02:03:08;94995.84;;;6.55;100.00
16451;BME280;12243;42.708;23.310;2023-03-23T02:05:41;95006.22;;;6.55;100.00
16451;BME280;12243;42.708;23.310;2023-03-23T02:08:14;95000.63;;;6.61;100.00
16451;BME280;12243;42.708;23.310;2023-03-23T02:10:45;95007.66;;;6.72;100.00
16451;BME280;12243;42.708;23.310;2023-03-23T02:13:13;95003.53;;;6.70;100.00
16451;BME280;12243;42.708;23.310;2023-03-23T02:15:48;95000.28;;;6.79;100.00
16451;BME280;12243;42.708;23.310;2023-03-23T02:18:38;95013.03;;;6.69;100.00
16451;BME280;12243;42.708;23.310;2023-03-23T02:21:25;95000.63;;;6.61;100.00
16451;BME280;12243;42.708;23.310;2023-03-23T02:24:20;94997.22;;;6.61;100.00
16451;BME280;12243;42.708;23.310;2023-03-23T02:26:55;95008.72;;;6.57;100.00
16451;BME280;12243;42.708;23.310;2023-03-23T02:30:01;95006.66;;;6.49;100.00
16451;BME280;12243;42.708;23.310;2023-03-23T02:33:13;95002.09;;;6.40;100.00
16451;BME280;12243;42.708;23.310;2023-03-23T02:35:46;95005.06;;;6.34;100.00
16451;BME280;12243;42.708;23.310;2023-03-23T02:38:20;95012.41;;;6.14;100.00
16451;BME280;12243;42.708;23.310;2023-03-23T02:40:50;95013.75;;;6.07;100.00
16451;BME280;12243;42.708;23.310;2023-03-23T02:43:20;95012.69;;;5.97;100.00
16451;BME280;12243;42.708;23.310;2023-03-23T02:45:51;95009.03;;;5.87;100.00
16451;BME280;12243;42.708;23.310;2023-03-23T02:48:22;95012.44;;;5.87;100.00
16451;BME280;12243;42.708;23.310;2023-03-23T02:50:52;95017.28;;;5.92;100.00
16451;BME280;12243;42.708;23.310;2023-03-23T02:53:23;95028.47;;;5.92;100.00
16451;BME280;12243;42.708;23.310;2023-03-23T02:55:54;95031.81;;;5.94;100.00
16451;BME280;12243;42.708;23.310;2023-03-23T02:58:27;95035.34;;;5.93;100.00
16451;BME280;12243;42.708;23.310;2023-03-23T03:00:54;95027.19;;;5.85;100.00
16451;BME280;12243;42.708;23.310;2023-03-23T03:03:25;95027.63;;;5.79;100.00
16451;BME280;12243;42.708;23.310;2023-03-23T03:06:00;95024.34;;;5.90;100.00
16451;BME280;12243;42.708;23.310;2023-03-23T03:08:35;95035.50;;;5.90;100.00
16451;BME280;12243;42.708;23.310;2023-03-23T03:11:08;95036.16;;;5.94;100.00
16451;BME280;12243;42.708;23.310;2023-03-23T03:13:45;95047.44;;;5.93;100.00
16451;BME280;12243;42.708;23.310;2023-03-23T03:16:22;95050.75;;;5.81;100.00
16451;BME280;12243;42.708;23.310;2023-03-23T03:18:57;95051.38;;;5.84;100.00
16451;BME280;12243;42.708;23.310;2023-03-23T03:21:28;95052.84;;;5.88;100.00
16451;BME280;12243;42.708;23.310;2023-03-23T03:24:00;95052.81;;;5.76;100.00
16451;BME280;12243;42.708;23.310;2023-03-23T03:26:30;95050.13;;;5.77;100.00
16451;BME280;12243;42.708;23.310;2023-03-23T03:29:14;95043.00;;;5.81;100.00
16451;BME280;12243;42.708;23.310;2023-03-23T03:31:47;95049.31;;;5.77;100.00
16451;BME280;12243;42.708;23.310;2023-03-23T03:34:17;95050.75;;;5.81;100.00
16451;BME280;12243;42.708;23.310;2023-03-23T03:36:48;95051.94;;;5.89;100.00
16451;BME280;12243;42.708;23.310;2023-03-23T03:39:17;95062.94;;;5.79;100.00
16451;BME280;12243;42.708;23.310;2023-03-23T03:41:46;95063.88;;;5.78;100.00
16451;BME280;12243;42.708;23.310;2023-03-23T03:44:14;95062.03;;;5.80;100.00
16451;BME280;12243;42.708;23.310;2023-03-23T03:46:41;95057.13;;;5.75;100.00
16451;BME280;12243;42.708;23.310;2023-03-23T03:49:10;95063.88;;;5.78;100.00
16451;BME280;12243;42.708;23.310;2023-03-23T03:51:41;95055.59;;;5.72;100.00
16451;BME280;12243;42.708;23.310;2023-03-23T03:54:16;95059.94;;;5.72;100.00
16451;BME280;12243;42.708;23.310;2023-03-23T03:56:43;95048.75;;;5.71;100.00
16451;BME280;12243;42.708;23.310;2023-03-23T03:59:29;95052.28;;;5.70;100.00
16451;BME280;12243;42.708;23.310;2023-03-23T04:02:16;95045.53;;;5.68;100.00
16451;BME280;12243;42.708;23.310;2023-03-23T04:04:46;95052.47;;;5.67;100.00
16451;BME280;12243;42.708;23.310;2023-03-23T04:07:15;95051.75;;;5.65;100.00
16451;BME280;12243;42.708;23.310;2023-03-23T04:09:43;95048.22;;;5.66;100.00
16451;BME280;12243;42.708;23.310;2023-03-23T04:12:13;95042.44;;;5.63;100.00
16451;BME280;12243;42.708;23.310;2023-03-23T04:15:10;95053.59;;;5.63;100.00
16451;BME280;12243;42.708;23.310;2023-03-23T04:17:37;95049.88;;;5.67;100.00
16451;BME280;12243;42.708;23.310;2023-03-23T04:20:07;95059.84;;;5.73;100.00
16451;BME280;12243;42.708;23.310;2023-03-23T04:22:39;95056.72;;;5.68;100.00
16451;BME280;12243;42.708;23.310;2023-03-23T04:25:10;95048.88;;;5.70;100.00
16451;BME280;12243;42.708;23.310;2023-03-23T04:27:39;95054.81;;;5.85;100.00
16451;BME280;12243;42.708;23.310;2023-03-23T04:30:11;95055.94;;;5.81;100.00
16451;BME280;12243;42.708;23.310;2023-03-23T04:32:42;95046.81;;;5.75;100.00
16451;BME280;12243;42.708;23.310;2023-03-23T04:35:14;95047.03;;;5.85;100.00
16451;BME280;12243;42.708;23.310;2023-03-23T04:37:48;95059.09;;;5.99;100.00
16451;BME280;12243;42.708;23.310;2023-03-23T04:40:18;95057.00;;;5.91;100.00
16451;BME280;12243;42.708;23.310;2023-03-23T04:42:58;95065.81;;;5.74;100.00
16451;BME280;12243;42.708;23.310;2023-03-23T04:45:41;95063.00;;;5.64;100.00
16451;BME280;12243;42.708;23.310;2023-03-23T04:48:12;95066.13;;;5.69;100.00
16451;BME280;12243;42.708;23.310;2023-03-23T04:50:49;95066.31;;;5.66;100.00
16451;BME280;12243;42.708;23.310;2023-03-23T04:53:25;95058.38;;;5.69;100.00
16451;BME280;12243;42.708;23.310;2023-03-23T04:55:52;95063.88;;;5.78;100.00
16451;BME280;12243;42.708;23.310;2023-03-23T04:58:20;95075.09;;;5.91;100.00
16451;BME280;12243;42.708;23.310;2023-03-23T05:01:15;95072.03;;;5.99;100.00
16451;BME280;12243;42.708;23.310;2023-03-23T05:04:01;95089.13;;;6.01;100.00
16451;BME280;12243;42.708;23.310;2023-03-23T05:06:29;95091.59;;;6.03;100.00
16451;BME280;12243;42.708;23.310;2023-03-23T05:09:03;95082.03;;;5.90;100.00
16451;BME280;12243;42.708;23.310;2023-03-23T05:11:30;95084.69;;;5.89;100.00
16451;BME280;12243;42.708;23.310;2023-03-23T05:13:58;95086.75;;;5.84;100.00
16451;BME280;12243;42.708;23.310;2023-03-23T05:16:25;95087.19;;;5.90;100.00
16451;BME280;12243;42.708;23.310;2023-03-23T05:18:55;95081.56;;;5.84;100.00
16451;BME280;12243;42.708;23.310;2023-03-23T05:21:23;95094.81;;;5.92;100.00
16451;BME280;12243;42.708;23.310;2023-03-23T05:23:53;95087.50;;;5.86;100.00
16451;BME280;12243;42.708;23.310;2023-03-23T05:26:23;95094.69;;;5.81;100.00
16451;BME280;12243;42.708;23.310;2023-03-23T05:28:53;95093.38;;;5.88;100.00
16451;BME280;12243;42.708;23.310;2023-03-23T05:31:34;95104.81;;;5.98;100.00
16451;BME280;12243;42.708;23.310;2023-03-23T05:34:01;95095.75;;;6.05;100.00
16451;BME280;12243;42.708;23.310;2023-03-23T05:36:38;95097.66;;;6.29;100.00
16451;BME280;12243;42.708;23.310;2023-03-23T05:39:27;95102.84;;;6.29;100.00
16451;BME280;12243;42.708;23.310;2023-03-23T05:42:08;95106.06;;;6.32;100.00
16451;BME280;12243;42.708;23.310;2023-03-23T05:45:00;95112.06;;;6.33;100.00
16451;BME280;12243;42.708;23.310;2023-03-23T05:47:27;95107.69;;;6.33;100.00
16451;BME280;12243;42.708;23.310;2023-03-23T05:50:01;95115.69;;;6.43;100.00
16451;BME280;12243;42.708;23.310;2023-03-23T05:52:29;95107.63;;;6.35;100.00
16451;BME280;12243;42.708;23.310;2023-03-23T05:54:58;95121.06;;;6.40;100.00
16451;BME280;12243;42.708;23.310;2023-03-23T05:57:28;95119.03;;;6.45;100.00
16451;BME280;12243;42.708;23.310;2023-03-23T06:00:02;95122.31;;;6.47;100.00
16451;BME280;12243;42.708;23.310;2023-03-23T06:02:53;95118.78;;;6.48;100.00
16451;BME280;12243;42.708;23.310;2023-03-23T06:05:28;95120.88;;;6.43;100.00
16451;BME280;12243;42.708;23.310;2023-03-23T06:07:57;95128.75;;;6.54;100.00
16451;BME280;12243;42.708;23.310;2023-03-23T06:10:25;95126.91;;;6.69;100.00
16451;BME280;12243;42.708;23.310;2023-03-23T06:13:00;95134.56;;;6.83;100.00
16451;BME280;12243;42.708;23.310;2023-03-23T06:15:34;95132.84;;;6.84;100.00
16451;BME280;12243;42.708;23.310;2023-03-23T06:18:12;95131.69;;;6.88;100.00
16451;BME280;12243;42.708;23.310;2023-03-23T06:21:03;95129.38;;;7.22;100.00
16451;BME280;12243;42.708;23.310;2023-03-23T06:23:45;95128.03;;;7.42;100.00
16451;BME280;12243;42.708;23.310;2023-03-23T06:26:18;95130.50;;;7.56;100.00
16451;BME280;12243;42.708;23.310;2023-03-23T06:28:56;95130.19;;;7.60;100.00
16451;BME280;12243;42.708;23.310;2023-03-23T06:31:27;95126.44;;;7.64;100.00
16451;BME280;12243;42.708;23.310;2023-03-23T06:33:54;95127.88;;;7.69;100.00
16451;BME280;12243;42.708;23.310;2023-03-23T06:36:25;95126.63;;;7.98;100.00
16451;BME280;12243;42.708;23.310;2023-03-23T06:39:16;95131.56;;;8.14;100.00
16451;BME280;12243;42.708;23.310;2023-03-23T06:41:52;95132.66;;;8.47;100.00
16451;BME280;12243;42.708;23.310;2023-03-23T06:44:20;95136.63;;;8.75;100.00
16451;BME280;12243;42.708;23.310;2023-03-23T06:46:47;95135.75;;;8.98;100.00
16451;BME280;12243;42.708;23.310;2023-03-23T06:49:35;95137.06;;;8.93;100.00
16451;BME280;12243;42.708;23.310;2023-03-23T06:52:17;95142.38;;;9.02;100.00
16451;BME280;12243;42.708;23.310;2023-03-23T06:54:45;95141.59;;;9.24;100.00
16451;BME280;12243;42.708;23.310;2023-03-23T06:57:12;95144.06;;;9.37;99.66
16451;BME280;12243;42.708;23.310;2023-03-23T06:59:44;95141.13;;;9.53;99.50
16451;BME280;12243;42.708;23.310;2023-03-23T07:02:12;95141.91;;;9.76;100.00
16451;BME280;12243;42.708;23.310;2023-03-23T07:04:42;95147.78;;;10.00;97.94
16451;BME280;12243;42.708;23.310;2023-03-23T07:07:17;95142.66;;;10.21;96.96
16451;BME280;12243;42.708;23.310;2023-03-23T07:09:50;95142.78;;;10.31;95.41
16451;BME280;12243;42.708;23.310;2023-03-23T07:12:21;95141.31;;;10.49;94.66
16451;BME280;12243;42.708;23.310;2023-03-23T07:14:51;95143.41;;;10.77;92.99
16451;BME280;12243;42.708;23.310;2023-03-23T07:17:18;95144.63;;;10.93;93.02
16451;BME280;12243;42.708;23.310;2023-03-23T07:20:05;95147.38;;;11.13;90.92
16451;BME280;12243;42.708;23.310;2023-03-23T07:22:33;95142.59;;;11.18;90.54
16451;BME280;12243;42.708;23.310;2023-03-23T07:25:08;95142.16;;;11.34;89.38
16451;BME280;12243;42.708;23.310;2023-03-23T07:28:05;95143.63;;;11.67;89.31
16451;BME280;12243;42.708;23.310;2023-03-23T07:30:34;95145.84;;;11.93;88.81
16451;BME280;12243;42.708;23.310;2023-03-23T07:33:04;95142.19;;;12.24;86.47
16451;BME280;12243;42.708;23.310;2023-03-23T07:35:32;95144.53;;;12.27;85.96
16451;BME280;12243;42.708;23.310;2023-03-23T07:38:04;95141.13;;;12.46;85.83
16451;BME280;12243;42.708;23.310;2023-03-23T07:40:32;95148.41;;;12.72;84.78
16451;BME280;12243;42.708;23.310;2023-03-23T07:43:09;95144.97;;;12.91;83.24
16451;BME280;12243;42.708;23.310;2023-03-23T07:46:09;95152.09;;;12.98;83.03
16451;BME280;12243;42.708;23.310;2023-03-23T07:48:49;95158.97;;;13.09;82.77
16451;BME280;12243;42.708;23.310;2023-03-23T07:51:21;95152.06;;;13.18;82.95
16451;BME280;12243;42.708;23.310;2023-03-23T07:53:49;95151.81;;;13.30;83.32
16451;BME280;12243;42.708;23.310;2023-03-23T07:56:35;95149.28;;;13.39;81.68
16451;BME280;12243;42.708;23.310;2023-03-23T07:59:14;95141.13;;;13.51;80.97
16451;BME280;12243;42.708;23.310;2023-03-23T08:01:44;95149.78;;;13.62;80.13
16451;BME280;12243;42.708;23.310;2023-03-23T08:04:43;95148.31;;;13.87;77.98
16451;BME280;12243;42.708;23.310;2023-03-23T08:07:35;95145.69;;;13.87;77.79
16451;BME280;12243;42.708;23.310;2023-03-23T08:10:22;95159.06;;;13.83;77.73
16451;BME280;12243;42.708;23.310;2023-03-23T08:13:13;95159.94;;;13.74;78.13
16451;BME280;12243;42.708;23.310;2023-03-23T08:15:40;95159.88;;;13.84;77.25
16451;BME280;12243;42.708;23.310;2023-03-23T08:18:11;95155.84;;;14.45;98.67
16451;BME280;12243;42.708;23.310;2023-03-23T08:20:41;95149.09;;;14.42;77.58
16451;BME280;12243;42.708;23.310;2023-03-23T08:23:29;95149.53;;;14.38;76.12
16451;BME280;12243;42.708;23.310;2023-03-23T08:26:14;95148.47;;;14.58;74.85
16451;BME280;12243;42.708;23.310;2023-03-23T08:28:57;95147.34;;;14.79;74.11
16451;BME280;12243;42.708;23.310;2023-03-23T08:31:44;95150.09;;;14.95;74.61
16451;BME280;12243;42.708;23.310;2023-03-23T08:34:32;95147.84;;;15.00;73.05
16451;BME280;12243;42.708;23.310;2023-03-23T08:37:10;95148.28;;;15.13;72.04
16451;BME280;12243;42.708;23.310;2023-03-23T08:40:14;95140.31;;;15.49;68.68
16451;BME280;12243;42.708;23.310;2023-03-23T08:43:17;95149.97;;;15.66;66.44
16451;BME280;12243;42.708;23.310;2023-03-23T08:46:13;95142.09;;;16.01;64.64
16451;BME280;12243;42.708;23.310;2023-03-23T08:49:03;95140.47;;;15.74;64.58
16451;BME280;12243;42.708;23.310;2023-03-23T08:51:32;95146.84;;;15.71;63.86
16451;BME280;12243;42.708;23.310;2023-03-23T08:54:34;95134.94;;;15.85;63.04
16451;BME280;12243;42.708;23.310;2023-03-23T08:57:21;95142.19;;;15.91;61.58
16451;BME280;12243;42.708;23.310;2023-03-23T09:00:08;95143.22;;;15.98;59.32
16451;BME280;12243;42.708;23.310;2023-03-23T09:03:05;95137.16;;;16.06;57.04
16451;BME280;12243;42.708;23.310;2023-03-23T09:05:58;95136.75;;;16.27;57.45
16451;BME280;12243;42.708;23.310;2023-03-23T09:08:37;95139.38;;;16.27;56.52
16451;BME280;12243;42.708;23.310;2023-03-23T09:11:05;95139.09;;;16.46;56.60
16451;BME280;12243;42.708;23.310;2023-03-23T09:13:34;95130.59;;;16.77;56.30
16451;BME280;12243;42.708;23.310;2023-03-23T09:16:01;95136.19;;;16.74;57.46
16451;BME280;12243;42.708;23.310;2023-03-23T09:18:28;95134.53;;;16.64;55.61
16451;BME280;12243;42.708;23.310;2023-03-23T09:20:56;95137.16;;;16.73;56.10
16451;BME280;12243;42.708;23.310;2023-03-23T09:23:23;95138.47;;;16.60;54.79
16451;BME280;12243;42.708;23.310;2023-03-23T09:25:52;95134.78;;;16.29;56.15
16451;BME280;12243;42.708;23.310;2023-03-23T09:28:20;95133.66;;;16.48;56.19
16451;BME280;12243;42.708;23.310;2023-03-23T09:30:47;95122.38;;;16.63;55.91
16451;BME280;12243;42.708;23.310;2023-03-23T09:33:15;95131.53;;;16.59;56.34
16451;BME280;12243;42.708;23.310;2023-03-23T09:35:42;95127.66;;;16.80;56.33
16451;BME280;12243;42.708;23.310;2023-03-23T09:38:10;95125.69;;;17.06;54.10
16451;BME280;12243;42.708;23.310;2023-03-23T09:40:42;95126.50;;;16.82;54.61
16451;BME280;12243;42.708;23.310;2023-03-23T09:43:26;95119.72;;;16.55;52.97
16451;BME280;12243;42.708;23.310;2023-03-23T09:46:07;95115.03;;;16.16;54.96
16451;BME280;12243;42.708;23.310;2023-03-23T09:48:44;95118.50;;;15.83;57.02
16451;BME280;12243;42.708;23.310;2023-03-23T09:51:21;95122.00;;;15.65;58.84
16451;BME280;12243;42.708;23.310;2023-03-23T09:53:52;95118.19;;;15.86;56.77
16451;BME280;12243;42.708;23.310;2023-03-23T09:56:21;95113.69;;;16.04;56.05
16451;BME280;12243;42.708;23.310;2023-03-23T09:58:55;95112.75;;;16.22;55.83
16451;BME280;12243;42.708;23.310;2023-03-23T10:01:27;95115.06;;;16.33;55.67
16451;BME280;12243;42.708;23.310;2023-03-23T10:04:01;95106.50;;;16.14;55.65
16451;BME280;12243;42.708;23.310;2023-03-23T10:06:31;95104.09;;;15.87;56.27
16451;BME280;12243;42.708;23.310;2023-03-23T10:09:00;95099.78;;;15.78;56.92
16451;BME280;12243;42.708;23.310;2023-03-23T10:11:36;95105.66;;;15.71;56.62
16451;BME280;12243;42.708;23.310;2023-03-23T10:14:31;95103.53;;;15.75;57.63
16451;BME280;12243;42.708;23.310;2023-03-23T10:17:07;95102.69;;;16.09;56.69
16451;BME280;12243;42.708;23.310;2023-03-23T10:19:45;95103.25;;;16.29;54.16
16451;BME280;12243;42.708;23.310;2023-03-23T10:22:15;95099.66;;;16.46;55.90
16451;BME280;12243;42.708;23.310;2023-03-23T10:24:50;95097.72;;;16.64;54.63
16451;BME280;12243;42.708;23.310;2023-03-23T10:27:23;95097.09;;;16.79;53.41
16451;BME280;12243;42.708;23.310;2023-03-23T10:29:58;95099.38;;;17.14;52.79
16451;BME280;12243;42.708;23.310;2023-03-23T10:32:41;95088.47;;;17.34;51.68
16451;BME280;12243;42.708;23.310;2023-03-23T10:35:13;95092.38;;;17.54;51.59
16451;BME280;12243;42.708;23.310;2023-03-23T10:37:46;95091.72;;;17.52;51.97
16451;BME280;12243;42.708;23.310;2023-03-23T10:40:17;95088.16;;;17.37;51.67
16451;BME280;12243;42.708;23.310;2023-03-23T10:42:46;95087.19;;;17.13;52.93
16451;BME280;12243;42.708;23.310;2023-03-23T10:45:19;95097.41;;;17.00;54.22
16451;BME280;12243;42.708;23.310;2023-03-23T10:47:51;95099.06;;;16.93;52.78
16451;BME280;12243;42.708;23.310;2023-03-23T10:50:24;95082.97;;;16.88;53.07
16451;BME280;12243;42.708;23.310;2023-03-23T10:52:54;95084.88;;;17.19;53.06
16451;BME280;12243;42.708;23.310;2023-03-23T10:55:34;95081.22;;;17.36;52.36
16451;BME280;12243;42.708;23.310;2023-03-23T10:58:03;95089.16;;;17.28;51.68
16451;BME280;12243;42.708;23.310;2023-03-23T11:00:33;95077.47;;;17.30;52.23
16451;BME280;12243;42.708;23.310;2023-03-23T11:03:02;95076.09;;;17.43;51.49
16451;BME280;12243;42.708;23.310;2023-03-23T11:05:36;95082.50;;;17.56;51.29
16451;BME280;12243;42.708;23.310;2023-03-23T11:08:11;95081.81;;;17.62;51.07
16451;BME280;12243;42.708;23.310;2023-03-23T11:10:41;95068.59;;;17.71;50.86
16451;BME280;12243;42.708;23.310;2023-03-23T11:13:12;95063.91;;;17.97;51.58
16451;BME280;12243;42.708;23.310;2023-03-23T11:15:43;95066.28;;;18.15;49.71
16451;BME280;12243;42.708;23.310;2023-03-23T11:18:17;95059.59;;;18.04;49.92
16451;BME280;12243;42.708;23.310;2023-03-23T11:20:46;95052.34;;;18.06;49.14
16451;BME280;12243;42.708;23.310;2023-03-23T11:23:20;95062.31;;;18.19;48.93
16451;BME280;12243;42.708;23.310;2023-03-23T11:25:55;95051.16;;;17.70;49.47
16451;BME280;12243;42.708;23.310;2023-03-23T11:28:28;95051.84;;;17.63;49.74
16451;BME280;12243;42.708;23.310;2023-03-23T11:30:58;95050.41;;;17.61;50.07
16451;BME280;12243;42.708;23.310;2023-03-23T11:33:29;95028.91;;;18.12;49.30
16451;BME280;12243;42.708;23.310;2023-03-23T11:35:57;95035.28;;;18.48;48.73
16451;BME280;12243;42.708;23.310;2023-03-23T11:38:24;95032.31;;;18.89;48.52
16451;BME280;12243;42.708;23.310;2023-03-23T11:40:54;95031.72;;;19.02;47.60
16451;BME280;12243;42.708;23.310;2023-03-23T11:43:23;95034.81;;;19.20;46.92
16451;BME280;12243;42.708;23.310;2023-03-23T11:45:58;95037.41;;;19.28;46.42
16451;BME280;12243;42.708;23.310;2023-03-23T11:48:34;95034.75;;;19.43;46.27
16451;BME280;12243;42.708;23.310;2023-03-23T11:51:10;95023.56;;;19.56;45.77
16451;BME280;12243;42.708;23.310;2023-03-23T11:53:46;95021.38;;;19.74;45.43
16451;BME280;12243;42.708;23.310;2023-03-23T11:56:22;95024.50;;;19.99;44.96
16451;BME280;12243;42.708;23.310;2023-03-23T11:58:51;95026.06;;;20.09;44.06
16451;BME280;12243;42.708;23.310;2023-03-23T12:01:38;95019.00;;;20.16;44.17
16451;BME280;12243;42.708;23.310;2023-03-23T12:04:32;95015.88;;;20.27;43.15
16451;BME280;12243;42.708;23.310;2023-03-23T12:10:23;95013.53;;;19.51;44.60
16451;BME280;12243;42.708;23.310;2023-03-23T12:12:59;95012.78;;;19.87;44.21
16451;BME280;12243;42.708;23.310;2023-03-23T12:15:32;94999.13;;;20.20;42.91
16451;BME280;12243;42.708;23.310;2023-03-23T12:18:08;95000.88;;;20.34;42.03
16451;BME280;12243;42.708;23.310;2023-03-23T12:20:48;95004.38;;;20.56;41.68
16451;BME280;12243;42.708;23.310;2023-03-23T12:23:23;95005.97;;;20.51;41.27
16451;BME280;12243;42.708;23.310;2023-03-23T12:26:16;95002.78;;;20.19;42.17
16451;BME280;12243;42.708;23.310;2023-03-23T12:31:49;95006.38;;;19.96;42.07
16451;BME280;12243;42.708;23.310;2023-03-23T12:34:29;94995.03;;;19.66;43.34
16451;BME280;12243;42.708;23.310;2023-03-23T12:37:09;94993.00;;;19.83;42.82
16451;BME280;12243;42.708;23.310;2023-03-23T12:39:59;94984.09;;;19.84;42.18
16451;BME280;12243;42.708;23.310;2023-03-23T12:42:40;94987.47;;;19.48;43.17
16451;BME280;12243;42.708;23.310;2023-03-23T12:45:17;94993.59;;;19.04;44.69
16451;BME280;12243;42.708;23.310;2023-03-23T12:47:51;94989.13;;;19.05;44.37
16451;BME280;12243;42.708;23.310;2023-03-23T12:50:26;94991.25;;;18.72;44.75
16451;BME280;12243;42.708;23.310;2023-03-23T12:52:58;94983.91;;;18.82;44.44
16451;BME280;12243;42.708;23.310;2023-03-23T12:55:35;94978.38;;;19.07;44.36
16451;BME280;12243;42.708;23.310;2023-03-23T12:58:07;94981.91;;;19.14;44.20
16451;BME280;12243;42.708;23.310;2023-03-23T13:00:53;94960.69;;;19.07;43.18
16451;BME280;12243;42.708;23.310;2023-03-23T13:03:26;94974.19;;;19.27;43.51
16451;BME280;12243;42.708;23.310;2023-03-23T13:06:00;94969.34;;;19.31;43.56
16451;BME280;12243;42.708;23.310;2023-03-23T13:08:32;94968.84;;;19.35;43.78
16451;BME280;12243;42.708;23.310;2023-03-23T13:11:03;94964.38;;;19.36;43.58
16451;BME280;12243;42.708;23.310;2023-03-23T13:13:44;94962.63;;;19.28;43.92
16451;BME280;12243;42.708;23.310;2023-03-23T13:16:18;94968.44;;;19.23;43.85
16451;BME280;12243;42.708;23.310;2023-03-23T13:18:52;94955.34;;;19.30;43.63
16451;BME280;12243;42.708;23.310;2023-03-23T13:21:26;94964.34;;;19.50;43.10
16451;BME280;12243;42.708;23.310;2023-03-23T13:24:00;94960.06;;;19.49;43.27
16451;BME280;12243;42.708;23.310;2023-03-23T13:26:29;94957.97;;;19.45;42.54
16451;BME280;12243;42.708;23.310;2023-03-23T13:28:58;94955.44;;;19.37;43.29
16451;BME280;12243;42.708;23.310;2023-03-23T13:31:28;94952.59;;;19.38;43.51
16451;BME280;12243;42.708;23.310;2023-03-23T13:34:03;94954.03;;;19.56;43.44